sensor_id;sensor_type;location;lat;lon;timestamp;P1;durP1;ratioP1;P2;durP2;ratioP2
34828;SDS011;21042;47.620;12.188;2023-12-14T00:01:49;10.75;;;7.10;;
34828;SDS011;21042;47.620;12.188;2023-12-14T00:04:16;7.93;;;4.85;;
34828;SDS011;21042;47.620;12.188;2023-12-14T00:06:43;13.25;;;7.40;;
34828;SDS011;21042;47.620;12.188;2023-12-14T00:09:10;17.60;;;8.48;;
34828;SDS011;21042;47.620;12.188;2023-12-14T00:11:39;17.23;;;10.30;;
34828;SDS011;21042;47.620;12.188;2023-12-14T00:14:06;13.18;;;6.55;;
34828;SDS011;21042;47.620;12.188;2023-12-14T00:16:33;8.02;;;5.05;;
34828;SDS011;21042;47.620;12.188;2023-12-14T00:19:00;8.10;;;4.57;;
34828;SDS011;21042;47.620;12.188;2023-12-14T00:21:27;10.57;;;5.07;;
34828;SDS011;21042;47.620;12.188;2023-12-14T00:23:53;5.10;;;3.10;;
34828;SDS011;21042;47.620;12.188;2023-12-14T00:26:20;3.53;;;2.15;;
34828;SDS011;21042;47.620;12.188;2023-12-14T00:28:47;6.45;;;3.30;;
34828;SDS011;21042;47.620;12.188;2023-12-14T00:31:14;4.57;;;2.78;;
34828;SDS011;21042;47.620;12.188;2023-12-14T00:33:40;5.10;;;3.28;;
34828;SDS011;21042;47.620;12.188;2023-12-14T00:36:08;6.05;;;3.50;;
34828;SDS011;21042;47.620;12.188;2023-12-14T00:38:35;7.63;;;3.30;;
34828;SDS011;21042;47.620;12.188;2023-12-14T00:41:02;5.85;;;3.55;;
34828;SDS011;21042;47.620;12.188;2023-12-14T00:43:28;10.73;;;5.07;;
34828;SDS011;21042;47.620;12.188;2023-12-14T00:45:55;7.53;;;4.90;;
34828;SDS011;21042;47.620;12.188;2023-12-14T00:48:22;10.88;;;5.53;;
34828;SDS011;21042;47.620;12.188;2023-12-14T00:50:49;6.43;;;3.80;;
34828;SDS011;21042;47.620;12.188;2023-12-14T00:53:15;6.28;;;3.50;;
34828;SDS011;21042;47.620;12.188;2023-12-14T00:55:42;5.45;;;3.55;;
34828;SDS011;21042;47.620;12.188;2023-12-14T00:58:11;6.43;;;3.00;;
34828;SDS011;21042;47.620;12.188;2023-12-14T01:00:41;4.45;;;2.22;;
34828;SDS011;21042;47.620;12.188;2023-12-14T01:05:35;4.80;;;2.33;;
34828;SDS011;21042;47.620;12.188;2023-12-14T01:08:02;7.75;;;3.45;;
34828;SDS011;21042;47.620;12.188;2023-12-14T01:10:29;8.40;;;3.45;;
34828;SDS011;21042;47.620;12.188;2023-12-14T01:12:55;6.80;;;3.78;;
34828;SDS011;21042;47.620;12.188;2023-12-14T01:15:22;4.28;;;2.28;;
34828;SDS011;21042;47.620;12.188;2023-12-14T01:17:49;3.83;;;2.38;;
34828;SDS011;21042;47.620;12.188;2023-12-14T01:20:18;6.13;;;3.35;;
34828;SDS011;21042;47.620;12.188;2023-12-14T01:22:45;5.72;;;2.72;;
34828;SDS011;21042;47.620;12.188;2023-12-14T01:25:12;4.88;;;3.08;;
34828;SDS011;21042;47.620;12.188;2023-12-14T01:27:39;4.57;;;2.53;;
34828;SDS011;21042;47.620;12.188;2023-12-14T01:30:06;3.88;;;2.63;;
34828;SDS011;21042;47.620;12.188;2023-12-14T01:32:34;4.72;;;2.75;;
34828;SDS011;21042;47.620;12.188;2023-12-14T01:35:01;6.00;;;3.00;;
34828;SDS011;21042;47.620;12.188;2023-12-14T01:37:28;6.00;;;2.92;;
34828;SDS011;21042;47.620;12.188;2023-12-14T01:39:55;11.23;;;5.50;;
34828;SDS011;21042;47.620;12.188;2023-12-14T01:42:21;7.82;;;5.07;;
34828;SDS011;21042;47.620;12.188;2023-12-14T01:44:48;5.47;;;3.00;;
34828;SDS011;21042;47.620;12.188;2023-12-14T01:47:15;5.90;;;3.13;;
34828;SDS011;21042;47.620;12.188;2023-12-14T01:49:42;4.05;;;2.20;;
34828;SDS011;21042;47.620;12.188;2023-12-14T01:52:08;5.10;;;2.08;;
34828;SDS011;21042;47.620;12.188;2023-12-14T01:54:35;4.45;;;2.38;;
34828;SDS011;21042;47.620;12.188;2023-12-14T01:57:02;4.97;;;1.48;;
34828;SDS011;21042;47.620;12.188;2023-12-14T01:59:29;2.95;;;1.98;;
34828;SDS011;21042;47.620;12.188;2023-12-14T02:01:56;3.55;;;2.33;;
34828;SDS011;21042;47.620;12.188;2023-12-14T02:04:24;3.80;;;2.50;;
34828;SDS011;21042;47.620;12.188;2023-12-14T02:06:51;5.13;;;2.47;;
34828;SDS011;21042;47.620;12.188;2023-12-14T02:09:18;3.97;;;2.50;;
34828;SDS011;21042;47.620;12.188;2023-12-14T02:11:45;4.80;;;3.10;;
34828;SDS011;21042;47.620;12.188;2023-12-14T02:14:12;4.88;;;2.60;;
34828;SDS011;21042;47.620;12.188;2023-12-14T02:16:39;4.70;;;3.17;;
34828;SDS011;21042;47.620;12.188;2023-12-14T02:19:06;6.18;;;3.53;;
34828;SDS011;21042;47.620;12.188;2023-12-14T02:21:33;4.88;;;3.22;;
34828;SDS011;21042;47.620;12.188;2023-12-14T02:24:00;5.35;;;2.75;;
34828;SDS011;21042;47.620;12.188;2023-12-14T02:26:26;4.65;;;2.58;;
34828;SDS011;21042;47.620;12.188;2023-12-14T02:28:53;4.13;;;1.90;;
34828;SDS011;21042;47.620;12.188;2023-12-14T02:31:20;5.30;;;2.50;;
34828;SDS011;21042;47.620;12.188;2023-12-14T02:33:47;5.47;;;2.38;;
34828;SDS011;21042;47.620;12.188;2023-12-14T02:36:14;2.65;;;1.50;;
34828;SDS011;21042;47.620;12.188;2023-12-14T02:38:40;4.32;;;2.45;;
34828;SDS011;21042;47.620;12.188;2023-12-14T02:41:07;6.15;;;3.28;;
34828;SDS011;21042;47.620;12.188;2023-12-14T02:43:34;6.60;;;3.75;;
34828;SDS011;21042;47.620;12.188;2023-12-14T02:46:01;7.05;;;4.35;;
34828;SDS011;21042;47.620;12.188;2023-12-14T02:48:29;7.07;;;3.25;;
34828;SDS011;21042;47.620;12.188;2023-12-14T02:50:56;8.65;;;4.03;;
34828;SDS011;21042;47.620;12.188;2023-12-14T02:53:23;7.53;;;3.58;;
34828;SDS011;21042;47.620;12.188;2023-12-14T02:55:50;6.93;;;3.20;;
34828;SDS011;21042;47.620;12.188;2023-12-14T02:58:17;6.15;;;2.50;;
34828;SDS011;21042;47.620;12.188;2023-12-14T03:00:45;4.43;;;2.58;;
34828;SDS011;21042;47.620;12.188;2023-12-14T03:03:11;5.97;;;3.05;;
34828;SDS011;21042;47.620;12.188;2023-12-14T03:05:38;5.63;;;2.75;;
34828;SDS011;21042;47.620;12.188;2023-12-14T03:08:05;5.35;;;2.78;;
34828;SDS011;21042;47.620;12.188;2023-12-14T03:10:32;5.43;;;3.15;;
34828;SDS011;21042;47.620;12.188;2023-12-14T03:12:59;17.48;;;5.22;;
34828;SDS011;21042;47.620;12.188;2023-12-14T03:15:25;11.48;;;5.57;;
34828;SDS011;21042;47.620;12.188;2023-12-14T03:17:52;7.07;;;4.05;;
34828;SDS011;21042;47.620;12.188;2023-12-14T03:20:20;5.53;;;3.40;;
34828;SDS011;21042;47.620;12.188;2023-12-14T03:22:47;4.97;;;2.70;;
34828;SDS011;21042;47.620;12.188;2023-12-14T03:25:14;4.75;;;3.10;;
34828;SDS011;21042;47.620;12.188;2023-12-14T03:27:41;3.53;;;2.55;;
34828;SDS011;21042;47.620;12.188;2023-12-14T03:30:08;4.88;;;2.50;;
34828;SDS011;21042;47.620;12.188;2023-12-14T03:32:36;3.90;;;2.35;;
34828;SDS011;21042;47.620;12.188;2023-12-14T03:35:04;5.47;;;2.53;;
34828;SDS011;21042;47.620;12.188;2023-12-14T03:37:31;6.97;;;3.25;;
34828;SDS011;21042;47.620;12.188;2023-12-14T03:39:58;8.40;;;4.60;;
34828;SDS011;21042;47.620;12.188;2023-12-14T03:42:25;19.42;;;10.30;;
34828;SDS011;21042;47.620;12.188;2023-12-14T03:44:52;24.40;;;11.90;;
34828;SDS011;21042;47.620;12.188;2023-12-14T03:47:19;28.02;;;11.63;;
34828;SDS011;21042;47.620;12.188;2023-12-14T03:49:46;10.90;;;5.90;;
34828;SDS011;21042;47.620;12.188;2023-12-14T03:52:12;6.93;;;3.75;;
34828;SDS011;21042;47.620;12.188;2023-12-14T03:54:39;9.02;;;3.85;;
34828;SDS011;21042;47.620;12.188;2023-12-14T03:57:06;4.40;;;2.15;;
34828;SDS011;21042;47.620;12.188;2023-12-14T03:59:33;5.93;;;2.85;;
34828;SDS011;21042;47.620;12.188;2023-12-14T04:01:59;7.53;;;2.33;;
34828;SDS011;21042;47.620;12.188;2023-12-14T04:04:26;4.70;;;2.40;;
34828;SDS011;21042;47.620;12.188;2023-12-14T04:06:53;4.28;;;2.28;;
34828;SDS011;21042;47.620;12.188;2023-12-14T04:09:20;6.30;;;2.63;;
34828;SDS011;21042;47.620;12.188;2023-12-14T04:11:47;5.13;;;2.58;;
34828;SDS011;21042;47.620;12.188;2023-12-14T04:14:13;9.25;;;4.20;;
34828;SDS011;21042;47.620;12.188;2023-12-14T04:16:40;10.20;;;4.50;;
34828;SDS011;21042;47.620;12.188;2023-12-14T04:19:07;10.32;;;5.22;;
34828;SDS011;21042;47.620;12.188;2023-12-14T04:21:37;9.30;;;5.80;;
34828;SDS011;21042;47.620;12.188;2023-12-14T04:24:04;8.18;;;4.70;;
34828;SDS011;21042;47.620;12.188;2023-12-14T04:26:31;10.25;;;4.88;;
34828;SDS011;21042;47.620;12.188;2023-12-14T04:28:57;7.60;;;4.18;;
34828;SDS011;21042;47.620;12.188;2023-12-14T04:31:24;7.30;;;4.20;;
34828;SDS011;21042;47.620;12.188;2023-12-14T04:33:51;11.18;;;4.95;;
34828;SDS011;21042;47.620;12.188;2023-12-14T04:36:18;15.68;;;8.73;;
34828;SDS011;21042;47.620;12.188;2023-12-14T04:38:45;12.00;;;7.25;;
34828;SDS011;21042;47.620;12.188;2023-12-14T04:41:13;12.38;;;5.55;;
34828;SDS011;21042;47.620;12.188;2023-12-14T04:43:40;8.00;;;4.05;;
34828;SDS011;21042;47.620;12.188;2023-12-14T04:46:07;6.82;;;2.53;;
34828;SDS011;21042;47.620;12.188;2023-12-14T04:48:33;6.35;;;2.30;;
34828;SDS011;21042;47.620;12.188;2023-12-14T04:51:00;2.38;;;1.48;;
34828;SDS011;21042;47.620;12.188;2023-12-14T04:53:27;2.58;;;1.48;;
34828;SDS011;21042;47.620;12.188;2023-12-14T04:55:54;3.92;;;1.48;;
34828;SDS011;21042;47.620;12.188;2023-12-14T04:58:21;2.75;;;1.75;;
34828;SDS011;21042;47.620;12.188;2023-12-14T05:00:48;3.00;;;1.95;;
34828;SDS011;21042;47.620;12.188;2023-12-14T05:03:15;4.95;;;3.03;;
34828;SDS011;21042;47.620;12.188;2023-12-14T05:05:42;4.53;;;2.90;;
34828;SDS011;21042;47.620;12.188;2023-12-14T05:08:08;5.38;;;3.30;;
34828;SDS011;21042;47.620;12.188;2023-12-14T05:10:35;5.65;;;3.17;;
34828;SDS011;21042;47.620;12.188;2023-12-14T05:13:02;5.63;;;3.28;;
34828;SDS011;21042;47.620;12.188;2023-12-14T05:15:29;6.90;;;3.38;;
34828;SDS011;21042;47.620;12.188;2023-12-14T05:17:57;5.40;;;3.38;;
34828;SDS011;21042;47.620;12.188;2023-12-14T05:20:24;8.93;;;4.03;;
34828;SDS011;21042;47.620;12.188;2023-12-14T05:22:51;9.73;;;4.25;;
34828;SDS011;21042;47.620;12.188;2023-12-14T05:25:17;5.10;;;3.17;;
34828;SDS011;21042;47.620;12.188;2023-12-14T05:27:44;12.63;;;7.18;;
34828;SDS011;21042;47.620;12.188;2023-12-14T05:30:11;6.28;;;3.22;;
34828;SDS011;21042;47.620;12.188;2023-12-14T05:32:38;6.00;;;3.05;;
34828;SDS011;21042;47.620;12.188;2023-12-14T05:35:06;4.75;;;2.67;;
34828;SDS011;21042;47.620;12.188;2023-12-14T05:40:01;5.20;;;2.60;;
34828;SDS011;21042;47.620;12.188;2023-12-14T05:42:28;5.38;;;2.90;;
34828;SDS011;21042;47.620;12.188;2023-12-14T05:44:55;6.63;;;3.35;;
34828;SDS011;21042;47.620;12.188;2023-12-14T05:47:22;5.53;;;3.13;;
34828;SDS011;21042;47.620;12.188;2023-12-14T05:49:49;4.88;;;2.72;;
34828;SDS011;21042;47.620;12.188;2023-12-14T05:52:16;5.50;;;2.90;;
34828;SDS011;21042;47.620;12.188;2023-12-14T05:54:43;21.85;;;8.60;;
34828;SDS011;21042;47.620;12.188;2023-12-14T05:57:10;22.77;;;10.35;;
34828;SDS011;21042;47.620;12.188;2023-12-14T05:59:39;13.70;;;7.03;;
34828;SDS011;21042;47.620;12.188;2023-12-14T06:02:06;15.85;;;6.70;;
34828;SDS011;21042;47.620;12.188;2023-12-14T06:06:59;19.80;;;8.70;;
34828;SDS011;21042;47.620;12.188;2023-12-14T06:09:26;16.50;;;7.03;;
34828;SDS011;21042;47.620;12.188;2023-12-14T06:12:00;15.02;;;6.38;;
34828;SDS011;21042;47.620;12.188;2023-12-14T06:14:31;12.38;;;5.95;;
34828;SDS011;21042;47.620;12.188;2023-12-14T06:16:57;13.10;;;6.47;;
34828;SDS011;21042;47.620;12.188;2023-12-14T06:21:51;9.13;;;4.20;;
34828;SDS011;21042;47.620;12.188;2023-12-14T06:24:18;9.32;;;4.43;;
34828;SDS011;21042;47.620;12.188;2023-12-14T06:26:47;12.88;;;6.07;;
34828;SDS011;21042;47.620;12.188;2023-12-14T06:29:14;12.10;;;6.78;;
34828;SDS011;21042;47.620;12.188;2023-12-14T06:31:41;15.70;;;8.13;;
34828;SDS011;21042;47.620;12.188;2023-12-14T06:34:08;16.30;;;8.60;;
34828;SDS011;21042;47.620;12.188;2023-12-14T06:36:35;16.92;;;9.25;;
34828;SDS011;21042;47.620;12.188;2023-12-14T06:39:02;15.68;;;7.55;;
34828;SDS011;21042;47.620;12.188;2023-12-14T06:41:31;11.90;;;5.43;;
34828;SDS011;21042;47.620;12.188;2023-12-14T06:43:58;12.95;;;6.13;;
34828;SDS011;21042;47.620;12.188;2023-12-14T06:46:25;16.48;;;5.90;;
34828;SDS011;21042;47.620;12.188;2023-12-14T06:48:52;10.10;;;4.70;;
34828;SDS011;21042;47.620;12.188;2023-12-14T06:51:20;11.10;;;4.13;;
34828;SDS011;21042;47.620;12.188;2023-12-14T06:56:14;4.60;;;2.22;;
34828;SDS011;21042;47.620;12.188;2023-12-14T06:58:42;6.60;;;2.33;;
34828;SDS011;21042;47.620;12.188;2023-12-14T07:01:13;14.38;;;5.55;;
34828;SDS011;21042;47.620;12.188;2023-12-14T07:03:41;17.58;;;7.60;;
34828;SDS011;21042;47.620;12.188;2023-12-14T07:06:13;17.30;;;7.55;;
34828;SDS011;21042;47.620;12.188;2023-12-14T07:08:41;15.73;;;6.50;;
34828;SDS011;21042;47.620;12.188;2023-12-14T07:11:08;5.57;;;3.03;;
34828;SDS011;21042;47.620;12.188;2023-12-14T07:13:36;4.90;;;2.42;;
34828;SDS011;21042;47.620;12.188;2023-12-14T07:18:31;7.43;;;3.25;;
34828;SDS011;21042;47.620;12.188;2023-12-14T07:20:58;8.32;;;3.83;;
34828;SDS011;21042;47.620;12.188;2023-12-14T07:23:25;6.20;;;2.63;;
34828;SDS011;21042;47.620;12.188;2023-12-14T07:25:53;3.88;;;1.42;;
34828;SDS011;21042;47.620;12.188;2023-12-14T07:28:20;3.13;;;1.17;;
34828;SDS011;21042;47.620;12.188;2023-12-14T07:30:47;2.72;;;0.90;;
34828;SDS011;21042;47.620;12.188;2023-12-14T07:33:14;4.15;;;1.23;;
34828;SDS011;21042;47.620;12.188;2023-12-14T07:38:11;1.23;;;0.60;;
34828;SDS011;21042;47.620;12.188;2023-12-14T07:40:38;2.60;;;1.05;;
34828;SDS011;21042;47.620;12.188;2023-12-14T07:45:32;3.80;;;1.60;;
34828;SDS011;21042;47.620;12.188;2023-12-14T07:47:59;2.42;;;1.50;;
34828;SDS011;21042;47.620;12.188;2023-12-14T07:50:26;5.35;;;2.22;;
34828;SDS011;21042;47.620;12.188;2023-12-14T07:52:53;5.43;;;3.30;;
34828;SDS011;21042;47.620;12.188;2023-12-14T07:55:20;4.45;;;2.17;;
34828;SDS011;21042;47.620;12.188;2023-12-14T07:57:47;3.10;;;2.10;;
34828;SDS011;21042;47.620;12.188;2023-12-14T08:00:15;10.40;;;2.67;;
34828;SDS011;21042;47.620;12.188;2023-12-14T08:02:42;4.80;;;2.55;;
34828;SDS011;21042;47.620;12.188;2023-12-14T08:05:08;7.30;;;3.03;;
34828;SDS011;21042;47.620;12.188;2023-12-14T08:07:36;5.65;;;3.63;;
34828;SDS011;21042;47.620;12.188;2023-12-14T08:10:02;5.05;;;2.28;;
34828;SDS011;21042;47.620;12.188;2023-12-14T08:12:29;3.25;;;1.90;;
34828;SDS011;21042;47.620;12.188;2023-12-14T08:14:56;4.25;;;2.30;;
34828;SDS011;21042;47.620;12.188;2023-12-14T08:17:23;2.53;;;1.48;;
34828;SDS011;21042;47.620;12.188;2023-12-14T08:19:50;2.70;;;1.00;;
34828;SDS011;21042;47.620;12.188;2023-12-14T08:22:17;1.75;;;1.00;;
34828;SDS011;21042;47.620;12.188;2023-12-14T08:24:43;1.55;;;0.90;;
34828;SDS011;21042;47.620;12.188;2023-12-14T08:27:10;1.58;;;1.20;;
34828;SDS011;21042;47.620;12.188;2023-12-14T08:29:37;1.15;;;0.80;;
34828;SDS011;21042;47.620;12.188;2023-12-14T08:32:05;1.77;;;1.05;;
34828;SDS011;21042;47.620;12.188;2023-12-14T08:34:32;2.08;;;1.30;;
34828;SDS011;21042;47.620;12.188;2023-12-14T08:37:00;3.53;;;2.35;;
34828;SDS011;21042;47.620;12.188;2023-12-14T08:39:27;5.68;;;2.60;;
34828;SDS011;21042;47.620;12.188;2023-12-14T08:41:54;7.97;;;3.05;;
34828;SDS011;21042;47.620;12.188;2023-12-14T08:44:20;5.50;;;2.90;;
34828;SDS011;21042;47.620;12.188;2023-12-14T08:46:47;7.97;;;3.70;;
34828;SDS011;21042;47.620;12.188;2023-12-14T08:49:15;6.72;;;3.33;;
34828;SDS011;21042;47.620;12.188;2023-12-14T08:51:42;7.95;;;4.22;;
34828;SDS011;21042;47.620;12.188;2023-12-14T08:54:09;5.72;;;3.30;;
34828;SDS011;21042;47.620;12.188;2023-12-14T08:56:36;6.20;;;3.58;;
34828;SDS011;21042;47.620;12.188;2023-12-14T08:59:03;5.15;;;3.20;;
34828;SDS011;21042;47.620;12.188;2023-12-14T09:04:00;5.07;;;3.67;;
34828;SDS011;21042;47.620;12.188;2023-12-14T09:06:26;7.75;;;4.28;;
34828;SDS011;21042;47.620;12.188;2023-12-14T09:08:53;5.50;;;3.42;;
34828;SDS011;21042;47.620;12.188;2023-12-14T09:11:20;6.40;;;2.75;;
34828;SDS011;21042;47.620;12.188;2023-12-14T09:13:47;4.80;;;2.90;;
34828;SDS011;21042;47.620;12.188;2023-12-14T09:16:14;7.80;;;3.80;;
34828;SDS011;21042;47.620;12.188;2023-12-14T09:18:41;7.20;;;4.10;;
34828;SDS011;21042;47.620;12.188;2023-12-14T09:21:08;9.82;;;4.70;;
34828;SDS011;21042;47.620;12.188;2023-12-14T09:23:35;9.43;;;4.22;;
34828;SDS011;21042;47.620;12.188;2023-12-14T09:26:02;7.40;;;3.40;;
34828;SDS011;21042;47.620;12.188;2023-12-14T09:28:29;8.10;;;3.65;;
34828;SDS011;21042;47.620;12.188;2023-12-14T09:30:56;8.98;;;4.60;;
34828;SDS011;21042;47.620;12.188;2023-12-14T09:33:23;6.55;;;4.35;;
34828;SDS011;21042;47.620;12.188;2023-12-14T09:35:50;9.70;;;4.25;;
34828;SDS011;21042;47.620;12.188;2023-12-14T09:38:17;5.75;;;3.55;;
34828;SDS011;21042;47.620;12.188;2023-12-14T09:40:45;7.82;;;4.03;;
34828;SDS011;21042;47.620;12.188;2023-12-14T09:43:12;4.93;;;3.00;;
34828;SDS011;21042;47.620;12.188;2023-12-14T09:45:40;4.68;;;2.80;;
34828;SDS011;21042;47.620;12.188;2023-12-14T09:48:11;4.13;;;2.65;;
34828;SDS011;21042;47.620;12.188;2023-12-14T09:50:39;5.65;;;2.88;;
34828;SDS011;21042;47.620;12.188;2023-12-14T09:53:07;9.60;;;3.40;;
34828;SDS011;21042;47.620;12.188;2023-12-14T09:55:34;7.45;;;2.78;;
34828;SDS011;21042;47.620;12.188;2023-12-14T09:58:01;8.05;;;3.30;;
34828;SDS011;21042;47.620;12.188;2023-12-14T10:00:36;6.05;;;3.20;;
34828;SDS011;21042;47.620;12.188;2023-12-14T10:03:23;7.28;;;5.00;;
34828;SDS011;21042;47.620;12.188;2023-12-14T10:05:55;8.65;;;5.25;;
34828;SDS011;21042;47.620;12.188;2023-12-14T10:08:23;8.07;;;4.45;;
34828;SDS011;21042;47.620;12.188;2023-12-14T10:10:52;10.60;;;5.00;;
34828;SDS011;21042;47.620;12.188;2023-12-14T10:13:21;9.73;;;5.22;;
34828;SDS011;21042;47.620;12.188;2023-12-14T10:16:02;10.68;;;5.32;;
34828;SDS011;21042;47.620;12.188;2023-12-14T10:18:29;7.07;;;4.57;;
34828;SDS011;21042;47.620;12.188;2023-12-14T10:21:00;9.10;;;4.70;;
34828;SDS011;21042;47.620;12.188;2023-12-14T10:23:27;7.13;;;4.03;;
34828;SDS011;21042;47.620;12.188;2023-12-14T10:25:54;8.70;;;4.82;;
34828;SDS011;21042;47.620;12.188;2023-12-14T10:28:22;9.75;;;5.40;;
34828;SDS011;21042;47.620;12.188;2023-12-14T10:33:15;10.90;;;4.70;;
34828;SDS011;21042;47.620;12.188;2023-12-14T10:38:12;10.73;;;5.25;;
34828;SDS011;21042;47.620;12.188;2023-12-14T10:40:41;11.65;;;6.00;;
34828;SDS011;21042;47.620;12.188;2023-12-14T10:43:10;10.80;;;6.53;;
34828;SDS011;21042;47.620;12.188;2023-12-14T10:45:40;7.63;;;4.88;;
34828;SDS011;21042;47.620;12.188;2023-12-14T10:48:09;11.45;;;5.05;;
34828;SDS011;21042;47.620;12.188;2023-12-14T10:50:39;7.20;;;4.90;;
34828;SDS011;21042;47.620;12.188;2023-12-14T10:53:08;24.52;;;11.50;;
34828;SDS011;21042;47.620;12.188;2023-12-14T10:58:04;17.10;;;8.77;;
34828;SDS011;21042;47.620;12.188;2023-12-14T11:00:31;13.50;;;6.43;;
34828;SDS011;21042;47.620;12.188;2023-12-14T11:05:26;9.35;;;5.63;;
34828;SDS011;21042;47.620;12.188;2023-12-14T11:08:03;6.80;;;4.50;;
34828;SDS011;21042;47.620;12.188;2023-12-14T11:11:00;13.13;;;5.70;;
34828;SDS011;21042;47.620;12.188;2023-12-14T11:13:36;6.32;;;3.63;;
34828;SDS011;21042;47.620;12.188;2023-12-14T11:16:05;13.85;;;9.00;;
34828;SDS011;21042;47.620;12.188;2023-12-14T11:18:31;11.60;;;9.07;;
34828;SDS011;21042;47.620;12.188;2023-12-14T11:20:59;8.50;;;4.75;;
34828;SDS011;21042;47.620;12.188;2023-12-14T11:23:29;5.95;;;3.83;;
34828;SDS011;21042;47.620;12.188;2023-12-14T11:25:59;6.03;;;3.78;;
34828;SDS011;21042;47.620;12.188;2023-12-14T11:28:30;8.48;;;4.25;;
34828;SDS011;21042;47.620;12.188;2023-12-14T11:30:58;10.77;;;5.30;;
34828;SDS011;21042;47.620;12.188;2023-12-14T11:33:26;9.02;;;3.88;;
34828;SDS011;21042;47.620;12.188;2023-12-14T11:35:55;6.88;;;3.88;;
34828;SDS011;21042;47.620;12.188;2023-12-14T11:38:23;8.82;;;4.65;;
34828;SDS011;21042;47.620;12.188;2023-12-14T11:40:51;8.48;;;3.47;;
34828;SDS011;21042;47.620;12.188;2023-12-14T11:43:18;6.53;;;4.40;;
34828;SDS011;21042;47.620;12.188;2023-12-14T11:45:50;7.68;;;4.22;;
34828;SDS011;21042;47.620;12.188;2023-12-14T11:48:16;7.22;;;4.25;;
34828;SDS011;21042;47.620;12.188;2023-12-14T11:50:44;7.18;;;4.10;;
34828;SDS011;21042;47.620;12.188;2023-12-14T11:53:11;8.25;;;4.47;;
34828;SDS011;21042;47.620;12.188;2023-12-14T11:55:39;9.02;;;4.05;;
34828;SDS011;21042;47.620;12.188;2023-12-14T11:58:07;8.93;;;4.47;;
34828;SDS011;21042;47.620;12.188;2023-12-14T12:00:37;8.23;;;4.03;;
34828;SDS011;21042;47.620;12.188;2023-12-14T12:03:15;7.03;;;3.92;;
34828;SDS011;21042;47.620;12.188;2023-12-14T12:05:44;8.90;;;4.30;;
34828;SDS011;21042;47.620;12.188;2023-12-14T12:08:13;7.75;;;4.10;;
34828;SDS011;21042;47.620;12.188;2023-12-14T12:10:41;9.70;;;4.05;;
34828;SDS011;21042;47.620;12.188;2023-12-14T12:13:27;9.00;;;4.55;;
34828;SDS011;21042;47.620;12.188;2023-12-14T12:15:53;7.10;;;5.00;;
34828;SDS011;21042;47.620;12.188;2023-12-14T12:18:20;9.48;;;4.85;;
34828;SDS011;21042;47.620;12.188;2023-12-14T12:20:47;8.10;;;4.10;;
34828;SDS011;21042;47.620;12.188;2023-12-14T12:23:14;7.30;;;4.25;;
34828;SDS011;21042;47.620;12.188;2023-12-14T12:25:42;8.35;;;4.63;;
34828;SDS011;21042;47.620;12.188;2023-12-14T12:28:09;9.77;;;4.63;;
34828;SDS011;21042;47.620;12.188;2023-12-14T12:30:36;11.45;;;5.07;;
34828;SDS011;21042;47.620;12.188;2023-12-14T12:33:06;7.22;;;4.28;;
34828;SDS011;21042;47.620;12.188;2023-12-14T12:35:33;6.43;;;4.72;;
34828;SDS011;21042;47.620;12.188;2023-12-14T12:38:00;7.72;;;4.78;;
34828;SDS011;21042;47.620;12.188;2023-12-14T12:40:28;10.07;;;4.97;;
34828;SDS011;21042;47.620;12.188;2023-12-14T12:42:57;10.27;;;4.45;;
34828;SDS011;21042;47.620;12.188;2023-12-14T12:45:24;9.80;;;5.45;;
34828;SDS011;21042;47.620;12.188;2023-12-14T12:47:54;10.93;;;5.35;;
34828;SDS011;21042;47.620;12.188;2023-12-14T12:50:21;8.70;;;5.65;;
34828;SDS011;21042;47.620;12.188;2023-12-14T12:52:48;10.07;;;5.20;;
34828;SDS011;21042;47.620;12.188;2023-12-14T12:55:16;8.82;;;5.40;;
34828;SDS011;21042;47.620;12.188;2023-12-14T12:57:43;8.35;;;5.68;;
34828;SDS011;21042;47.620;12.188;2023-12-14T13:00:10;10.18;;;5.28;;
34828;SDS011;21042;47.620;12.188;2023-12-14T13:02:38;13.77;;;6.15;;
34828;SDS011;21042;47.620;12.188;2023-12-14T13:05:09;8.95;;;5.03;;
34828;SDS011;21042;47.620;12.188;2023-12-14T13:07:44;7.28;;;4.80;;
34828;SDS011;21042;47.620;12.188;2023-12-14T13:10:12;13.82;;;5.78;;
34828;SDS011;21042;47.620;12.188;2023-12-14T13:12:54;9.77;;;5.28;;
34828;SDS011;21042;47.620;12.188;2023-12-14T13:15:21;11.93;;;5.82;;
34828;SDS011;21042;47.620;12.188;2023-12-14T13:17:52;11.90;;;6.43;;
34828;SDS011;21042;47.620;12.188;2023-12-14T13:20:20;9.50;;;6.28;;
34828;SDS011;21042;47.620;12.188;2023-12-14T13:22:47;14.77;;;7.30;;
34828;SDS011;21042;47.620;12.188;2023-12-14T13:25:13;12.10;;;6.72;;
34828;SDS011;21042;47.620;12.188;2023-12-14T13:27:41;11.70;;;6.60;;
34828;SDS011;21042;47.620;12.188;2023-12-14T13:30:09;9.65;;;5.93;;
34828;SDS011;21042;47.620;12.188;2023-12-14T13:32:37;12.85;;;6.45;;
34828;SDS011;21042;47.620;12.188;2023-12-14T13:35:04;14.32;;;7.28;;
34828;SDS011;21042;47.620;12.188;2023-12-14T13:37:32;13.13;;;6.72;;
34828;SDS011;21042;47.620;12.188;2023-12-14T13:40:00;11.90;;;6.65;;
34828;SDS011;21042;47.620;12.188;2023-12-14T13:42:27;14.23;;;7.43;;
34828;SDS011;21042;47.620;12.188;2023-12-14T13:47:21;12.10;;;6.28;;
34828;SDS011;21042;47.620;12.188;2023-12-14T13:49:48;10.80;;;6.15;;
34828;SDS011;21042;47.620;12.188;2023-12-14T13:52:15;12.30;;;5.80;;
34828;SDS011;21042;47.620;12.188;2023-12-14T13:54:42;9.18;;;6.70;;
34828;SDS011;21042;47.620;12.188;2023-12-14T13:57:08;12.35;;;6.70;;
34828;SDS011;21042;47.620;12.188;2023-12-14T13:59:35;15.88;;;7.00;;
34828;SDS011;21042;47.620;12.188;2023-12-14T14:02:02;10.63;;;5.93;;
34828;SDS011;21042;47.620;12.188;2023-12-14T14:04:29;11.27;;;5.93;;
34828;SDS011;21042;47.620;12.188;2023-12-14T14:06:56;11.38;;;6.40;;
34828;SDS011;21042;47.620;12.188;2023-12-14T14:09:23;13.00;;;7.00;;
34828;SDS011;21042;47.620;12.188;2023-12-14T14:11:49;14.07;;;6.97;;
34828;SDS011;21042;47.620;12.188;2023-12-14T14:14:17;14.07;;;7.30;;
34828;SDS011;21042;47.620;12.188;2023-12-14T14:16:44;15.30;;;7.55;;
34828;SDS011;21042;47.620;12.188;2023-12-14T14:19:11;14.55;;;8.20;;
34828;SDS011;21042;47.620;12.188;2023-12-14T14:21:38;14.20;;;8.07;;
34828;SDS011;21042;47.620;12.188;2023-12-14T14:24:05;15.25;;;7.85;;
34828;SDS011;21042;47.620;12.188;2023-12-14T14:26:32;17.00;;;8.68;;
34828;SDS011;21042;47.620;12.188;2023-12-14T14:28:59;19.50;;;9.05;;
34828;SDS011;21042;47.620;12.188;2023-12-14T14:31:29;15.95;;;9.10;;
34828;SDS011;21042;47.620;12.188;2023-12-14T14:33:59;17.50;;;8.52;;
34828;SDS011;21042;47.620;12.188;2023-12-14T14:36:26;15.57;;;7.75;;
34828;SDS011;21042;47.620;12.188;2023-12-14T14:38:54;14.88;;;8.30;;
34828;SDS011;21042;47.620;12.188;2023-12-14T14:41:23;19.38;;;8.95;;
34828;SDS011;21042;47.620;12.188;2023-12-14T14:43:50;14.82;;;9.13;;
34828;SDS011;21042;47.620;12.188;2023-12-14T14:46:18;15.25;;;8.40;;
34828;SDS011;21042;47.620;12.188;2023-12-14T14:48:44;16.25;;;8.68;;
34828;SDS011;21042;47.620;12.188;2023-12-14T14:51:11;17.23;;;8.65;;
34828;SDS011;21042;47.620;12.188;2023-12-14T14:53:38;17.85;;;7.95;;
34828;SDS011;21042;47.620;12.188;2023-12-14T14:56:09;11.75;;;6.82;;
34828;SDS011;21042;47.620;12.188;2023-12-14T14:58:37;10.45;;;6.32;;
34828;SDS011;21042;47.620;12.188;2023-12-14T15:01:04;12.27;;;6.63;;
34828;SDS011;21042;47.620;12.188;2023-12-14T15:03:31;15.50;;;8.43;;
34828;SDS011;21042;47.620;12.188;2023-12-14T15:05:58;19.92;;;9.75;;
34828;SDS011;21042;47.620;12.188;2023-12-14T15:08:25;18.40;;;9.98;;